TimeCST,TemperatureF,Dew PointF,Humidity,Sea Level PressureIn,VisibilityMPH,Wind Direction,Wind SpeedMPH,Gust SpeedMPH,PrecipitationIn,Events,Conditions,WindDirDegrees,DateUTC
12:53 AM,21.0,16.0,81,29.92,6.0,West,8.1,-,N/A,,Haze,270,2013-12-15 06:53:00
1:53 AM,21.9,16.0,78,29.92,6.0,West,10.4,-,N/A,,Haze,270,2013-12-15 07:53:00
2:13 AM,21.9,16.0,78,29.89,6.0,West,9.2,-,N/A,,Haze,270,2013-12-15 08:13:00
2:53 AM,21.9,16.0,78,29.92,6.0,West,12.7,21.9,N/A,,Haze,270,2013-12-15 08:53:00
3:09 AM,21.0,15.1,78,29.89,6.0,West,13.8,26.5,N/A,,Haze,270,2013-12-15 09:09:00
3:53 AM,19.9,12.9,74,29.92,6.0,West,16.1,-,N/A,,Haze,280,2013-12-15 09:53:00
4:53 AM,19.0,10.9,71,29.93,6.0,WNW,16.1,21.9,0.00,,Haze,290,2013-12-15 10:53:00
5:53 AM,17.1,6.1,62,29.96,10.0,WNW,16.1,21.9,0.00,,Overcast,300,2013-12-15 11:53:00
6:17 AM,16.0,6.1,65,29.93,10.0,WNW,16.1,-,N/A,,Overcast,300,2013-12-15 12:17:00
6:25 AM,16.0,6.1,65,29.93,9.0,WNW,20.7,26.5,N/A,,Overcast,300,2013-12-15 12:25:00
6:37 AM,15.1,5.0,64,29.94,8.0,WNW,18.4,26.5,N/A,,Overcast,300,2013-12-15 12:37:00
6:53 AM,15.1,5.0,64,29.98,9.0,WNW,13.8,-,N/A,,Overcast,300,2013-12-15 12:53:00
7:53 AM,14.0,3.9,64,29.99,8.0,West,12.7,-,N/A,,Overcast,280,2013-12-15 13:53:00
8:53 AM,14.0,3.9,64,30.01,9.0,West,12.7,20.7,N/A,,Overcast,280,2013-12-15 14:53:00
9:53 AM,14.0,3.9,64,30.02,10.0,WNW,15.0,21.9,N/A,,Overcast,290,2013-12-15 15:53:00
10:53 AM,15.1,1.9,56,30.03,10.0,WNW,12.7,-,N/A,,Overcast,300,2013-12-15 16:53:00
11:53 AM,16.0,5.0,62,30.01,9.0,West,15.0,21.9,N/A,,Overcast,280,2013-12-15 17:53:00
12:53 PM,16.0,3.9,59,30.01,10.0,WNW,13.8,-,N/A,,Overcast,290,2013-12-15 18:53:00
1:53 PM,16.0,3.9,59,30.01,10.0,West,11.5,-,N/A,,Clear,270,2013-12-15 19:53:00
2:53 PM,15.1,1.0,54,30.03,10.0,West,12.7,-,N/A,,Clear,270,2013-12-15 20:53:00
3:53 PM,14.0,-0.9,52,30.05,10.0,West,12.7,-,N/A,,Clear,280,2013-12-15 21:53:00
4:53 PM,10.9,-0.9,59,30.06,10.0,West,8.1,-,N/A,,Clear,280,2013-12-15 22:53:00
5:53 PM,9.0,-2.9,59,30.08,10.0,West,6.9,-,N/A,,Clear,280,2013-12-15 23:53:00
6:53 PM,7.0,-2.9,64,30.10,10.0,West,6.9,-,N/A,,Clear,270,2013-12-16 00:53:00
7:53 PM,8.1,-4.0,58,30.11,10.0,WNW,8.1,-,N/A,,Clear,290,2013-12-16 01:53:00
8:53 PM,8.1,-2.9,61,30.12,10.0,West,8.1,-,N/A,,Clear,280,2013-12-16 02:53:00
9:53 PM,8.1,-5.1,55,30.14,10.0,WNW,9.2,-,N/A,,Clear,300,2013-12-16 03:53:00
10:53 PM,8.1,-6.0,53,30.14,10.0,WNW,9.2,-,N/A,,Clear,290,2013-12-16 04:53:00
11:53 PM,7.0,-6.0,55,30.14,10.0,NW,9.2,-,N/A,,Mostly Cloudy,310,2013-12-16 05:53:00